sensor_id;sensor_type;location;lat;lon;timestamp;P1;durP1;ratioP1;P2;durP2;ratioP2
66593;SDS011;53450;42.584;23.366;2023-12-29T00:02:01;10.53;;;6.93;;
66593;SDS011;53450;42.584;23.366;2023-12-29T00:04:27;14.00;;;7.10;;
66593;SDS011;53450;42.584;23.366;2023-12-29T00:06:53;12.13;;;6.53;;
66593;SDS011;53450;42.584;23.366;2023-12-29T00:09:19;14.10;;;6.53;;
66593;SDS011;53450;42.584;23.366;2023-12-29T00:11:48;13.33;;;6.67;;
66593;SDS011;53450;42.584;23.366;2023-12-29T00:14:15;9.67;;;5.70;;
66593;SDS011;53450;42.584;23.366;2023-12-29T00:16:41;5.77;;;4.83;;
66593;SDS011;53450;42.584;23.366;2023-12-29T00:19:06;9.00;;;5.60;;
66593;SDS011;53450;42.584;23.366;2023-12-29T00:21:32;10.00;;;6.10;;
66593;SDS011;53450;42.584;23.366;2023-12-29T00:23:58;8.73;;;5.77;;
66593;SDS011;53450;42.584;23.366;2023-12-29T00:26:24;8.17;;;5.30;;
66593;SDS011;53450;42.584;23.366;2023-12-29T00:28:55;10.18;;;5.47;;
66593;SDS011;53450;42.584;23.366;2023-12-29T00:31:21;8.03;;;5.07;;
66593;SDS011;53450;42.584;23.366;2023-12-29T00:33:46;7.47;;;5.50;;
66593;SDS011;53450;42.584;23.366;2023-12-29T00:36:15;7.47;;;4.83;;
66593;SDS011;53450;42.584;23.366;2023-12-29T00:38:41;8.13;;;5.53;;
66593;SDS011;53450;42.584;23.366;2023-12-29T00:41:07;8.30;;;5.90;;
66593;SDS011;53450;42.584;23.366;2023-12-29T00:43:33;9.90;;;5.50;;
66593;SDS011;53450;42.584;23.366;2023-12-29T00:46:00;9.80;;;5.63;;
66593;SDS011;53450;42.584;23.366;2023-12-29T00:48:27;9.17;;;5.60;;
66593;SDS011;53450;42.584;23.366;2023-12-29T00:50:52;7.53;;;4.73;;
66593;SDS011;53450;42.584;23.366;2023-12-29T00:53:18;14.47;;;6.23;;
66593;SDS011;53450;42.584;23.366;2023-12-29T00:55:44;7.57;;;5.40;;
66593;SDS011;53450;42.584;23.366;2023-12-29T00:58:09;8.53;;;5.20;;
66593;SDS011;53450;42.584;23.366;2023-12-29T01:00:35;8.07;;;5.47;;
66593;SDS011;53450;42.584;23.366;2023-12-29T01:03:00;11.57;;;5.53;;
66593;SDS011;53450;42.584;23.366;2023-12-29T01:05:26;7.37;;;4.87;;
66593;SDS011;53450;42.584;23.366;2023-12-29T01:07:54;7.77;;;5.57;;
66593;SDS011;53450;42.584;23.366;2023-12-29T01:10:20;12.23;;;5.43;;
66593;SDS011;53450;42.584;23.366;2023-12-29T01:12:46;10.13;;;5.53;;
66593;SDS011;53450;42.584;23.366;2023-12-29T01:15:13;13.93;;;7.63;;
66593;SDS011;53450;42.584;23.366;2023-12-29T01:17:40;12.53;;;7.83;;
66593;SDS011;53450;42.584;23.366;2023-12-29T01:20:06;15.13;;;8.57;;
66593;SDS011;53450;42.584;23.366;2023-12-29T01:22:33;7.53;;;6.07;;
66593;SDS011;53450;42.584;23.366;2023-12-29T01:24:58;11.17;;;6.13;;
66593;SDS011;53450;42.584;23.366;2023-12-29T01:27:25;10.63;;;5.70;;
66593;SDS011;53450;42.584;23.366;2023-12-29T01:29:50;12.37;;;6.93;;
66593;SDS011;53450;42.584;23.366;2023-12-29T01:32:17;14.77;;;7.60;;
66593;SDS011;53450;42.584;23.366;2023-12-29T01:34:47;12.37;;;7.93;;
66593;SDS011;53450;42.584;23.366;2023-12-29T01:37:12;10.93;;;6.70;;
66593;SDS011;53450;42.584;23.366;2023-12-29T01:39:38;11.97;;;6.80;;
66593;SDS011;53450;42.584;23.366;2023-12-29T01:42:05;19.33;;;7.87;;
66593;SDS011;53450;42.584;23.366;2023-12-29T01:44:31;12.70;;;7.77;;
66593;SDS011;53450;42.584;23.366;2023-12-29T01:46:58;10.50;;;6.97;;
66593;SDS011;53450;42.584;23.366;2023-12-29T01:49:26;15.23;;;6.50;;
66593;SDS011;53450;42.584;23.366;2023-12-29T01:51:56;15.10;;;9.03;;
66593;SDS011;53450;42.584;23.366;2023-12-29T01:54:24;13.60;;;7.90;;
66593;SDS011;53450;42.584;23.366;2023-12-29T01:56:53;16.30;;;8.17;;
66593;SDS011;53450;42.584;23.366;2023-12-29T01:59:21;21.80;;;8.30;;
66593;SDS011;53450;42.584;23.366;2023-12-29T02:01:49;16.20;;;8.10;;
66593;SDS011;53450;42.584;23.366;2023-12-29T02:04:15;9.93;;;7.00;;
66593;SDS011;53450;42.584;23.366;2023-12-29T02:06:42;9.93;;;6.63;;
66593;SDS011;53450;42.584;23.366;2023-12-29T02:09:08;7.93;;;5.23;;
66593;SDS011;53450;42.584;23.366;2023-12-29T02:11:34;7.27;;;5.43;;
66593;SDS011;53450;42.584;23.366;2023-12-29T02:14:01;11.47;;;5.40;;
66593;SDS011;53450;42.584;23.366;2023-12-29T02:16:33;6.47;;;5.30;;
66593;SDS011;53450;42.584;23.366;2023-12-29T02:19:09;8.20;;;5.07;;
66593;SDS011;53450;42.584;23.366;2023-12-29T02:21:46;6.90;;;5.17;;
66593;SDS011;53450;42.584;23.366;2023-12-29T02:24:11;9.80;;;6.83;;
66593;SDS011;53450;42.584;23.366;2023-12-29T02:26:37;9.73;;;5.23;;
66593;SDS011;53450;42.584;23.366;2023-12-29T02:29:06;4.40;;;4.00;;
66593;SDS011;53450;42.584;23.366;2023-12-29T02:31:37;7.75;;;4.20;;
66593;SDS011;53450;42.584;23.366;2023-12-29T02:34:07;7.37;;;4.07;;
66593;SDS011;53450;42.584;23.366;2023-12-29T02:36:36;6.27;;;4.10;;
66593;SDS011;53450;42.584;23.366;2023-12-29T02:39:08;8.60;;;4.68;;
66593;SDS011;53450;42.584;23.366;2023-12-29T02:41:35;7.70;;;5.10;;
66593;SDS011;53450;42.584;23.366;2023-12-29T02:44:02;9.30;;;6.00;;
66593;SDS011;53450;42.584;23.366;2023-12-29T02:46:28;11.53;;;6.40;;
66593;SDS011;53450;42.584;23.366;2023-12-29T02:48:53;7.13;;;5.33;;
66593;SDS011;53450;42.584;23.366;2023-12-29T02:51:20;6.37;;;4.60;;
66593;SDS011;53450;42.584;23.366;2023-12-29T02:53:46;6.10;;;4.60;;
66593;SDS011;53450;42.584;23.366;2023-12-29T02:56:14;7.60;;;4.43;;
66593;SDS011;53450;42.584;23.366;2023-12-29T02:58:40;10.87;;;5.20;;
66593;SDS011;53450;42.584;23.366;2023-12-29T03:01:06;6.00;;;4.20;;
66593;SDS011;53450;42.584;23.366;2023-12-29T03:03:31;5.37;;;4.27;;
66593;SDS011;53450;42.584;23.366;2023-12-29T03:05:57;4.80;;;4.23;;
66593;SDS011;53450;42.584;23.366;2023-12-29T03:08:22;5.23;;;4.43;;
66593;SDS011;53450;42.584;23.366;2023-12-29T03:10:48;6.33;;;4.23;;
66593;SDS011;53450;42.584;23.366;2023-12-29T03:13:14;7.93;;;4.07;;
66593;SDS011;53450;42.584;23.366;2023-12-29T03:15:39;6.90;;;4.40;;
66593;SDS011;53450;42.584;23.366;2023-12-29T03:18:05;6.77;;;4.60;;
66593;SDS011;53450;42.584;23.366;2023-12-29T03:20:30;3.23;;;3.03;;
66593;SDS011;53450;42.584;23.366;2023-12-29T03:22:56;13.07;;;7.43;;
66593;SDS011;53450;42.584;23.366;2023-12-29T03:25:22;18.57;;;6.13;;
66593;SDS011;53450;42.584;23.366;2023-12-29T03:27:49;11.70;;;4.63;;
66593;SDS011;53450;42.584;23.366;2023-12-29T03:30:14;4.07;;;3.43;;
66593;SDS011;53450;42.584;23.366;2023-12-29T03:32:42;8.37;;;4.40;;
66593;SDS011;53450;42.584;23.366;2023-12-29T03:35:08;16.10;;;7.90;;
66593;SDS011;53450;42.584;23.366;2023-12-29T03:37:33;9.07;;;5.80;;
66593;SDS011;53450;42.584;23.366;2023-12-29T03:39:59;8.27;;;4.87;;
66593;SDS011;53450;42.584;23.366;2023-12-29T03:42:24;6.47;;;5.30;;
66593;SDS011;53450;42.584;23.366;2023-12-29T03:44:50;5.50;;;4.47;;
66593;SDS011;53450;42.584;23.366;2023-12-29T03:47:15;7.70;;;4.60;;
66593;SDS011;53450;42.584;23.366;2023-12-29T03:49:42;10.30;;;6.90;;
66593;SDS011;53450;42.584;23.366;2023-12-29T03:52:08;12.27;;;8.27;;
66593;SDS011;53450;42.584;23.366;2023-12-29T03:54:33;12.03;;;7.37;;
66593;SDS011;53450;42.584;23.366;2023-12-29T03:56:59;10.83;;;5.50;;
66593;SDS011;53450;42.584;23.366;2023-12-29T03:59:24;12.00;;;6.70;;
66593;SDS011;53450;42.584;23.366;2023-12-29T04:01:50;15.43;;;7.30;;
66593;SDS011;53450;42.584;23.366;2023-12-29T04:04:16;8.37;;;5.50;;
66593;SDS011;53450;42.584;23.366;2023-12-29T04:06:41;13.50;;;5.60;;
66593;SDS011;53450;42.584;23.366;2023-12-29T04:09:07;35.67;;;14.97;;
66593;SDS011;53450;42.584;23.366;2023-12-29T04:11:33;158.13;;;47.60;;
66593;SDS011;53450;42.584;23.366;2023-12-29T04:13:59;42.40;;;14.57;;
66593;SDS011;53450;42.584;23.366;2023-12-29T04:16:26;14.33;;;7.50;;
66593;SDS011;53450;42.584;23.366;2023-12-29T04:18:51;7.97;;;5.33;;
66593;SDS011;53450;42.584;23.366;2023-12-29T04:21:17;7.23;;;6.10;;
66593;SDS011;53450;42.584;23.366;2023-12-29T04:23:42;5.50;;;4.90;;
66593;SDS011;53450;42.584;23.366;2023-12-29T04:26:08;4.33;;;3.60;;
66593;SDS011;53450;42.584;23.366;2023-12-29T04:28:34;4.53;;;3.20;;
66593;SDS011;53450;42.584;23.366;2023-12-29T04:30:59;3.13;;;2.60;;
66593;SDS011;53450;42.584;23.366;2023-12-29T04:33:25;6.33;;;3.17;;
66593;SDS011;53450;42.584;23.366;2023-12-29T04:35:51;8.30;;;4.23;;
66593;SDS011;53450;42.584;23.366;2023-12-29T04:38:17;5.13;;;3.40;;
66593;SDS011;53450;42.584;23.366;2023-12-29T04:40:45;5.03;;;3.47;;
66593;SDS011;53450;42.584;23.366;2023-12-29T04:43:12;6.47;;;3.83;;
66593;SDS011;53450;42.584;23.366;2023-12-29T04:45:38;5.43;;;3.47;;
66593;SDS011;53450;42.584;23.366;2023-12-29T04:48:03;10.27;;;5.70;;
66593;SDS011;53450;42.584;23.366;2023-12-29T04:50:29;12.80;;;6.47;;
66593;SDS011;53450;42.584;23.366;2023-12-29T04:52:55;20.10;;;9.07;;
66593;SDS011;53450;42.584;23.366;2023-12-29T04:55:20;16.50;;;7.70;;
66593;SDS011;53450;42.584;23.366;2023-12-29T04:57:46;12.50;;;6.87;;
66593;SDS011;53450;42.584;23.366;2023-12-29T05:00:12;12.73;;;6.83;;
66593;SDS011;53450;42.584;23.366;2023-12-29T05:02:38;10.00;;;5.10;;
66593;SDS011;53450;42.584;23.366;2023-12-29T05:05:03;11.17;;;5.37;;
66593;SDS011;53450;42.584;23.366;2023-12-29T05:07:29;6.93;;;4.30;;
66593;SDS011;53450;42.584;23.366;2023-12-29T05:09:55;7.53;;;4.03;;
66593;SDS011;53450;42.584;23.366;2023-12-29T05:12:21;6.27;;;4.50;;
66593;SDS011;53450;42.584;23.366;2023-12-29T05:14:46;6.43;;;3.57;;
66593;SDS011;53450;42.584;23.366;2023-12-29T05:17:12;5.00;;;3.67;;
66593;SDS011;53450;42.584;23.366;2023-12-29T05:19:37;4.50;;;3.57;;
66593;SDS011;53450;42.584;23.366;2023-12-29T05:22:03;5.53;;;3.60;;
66593;SDS011;53450;42.584;23.366;2023-12-29T05:24:28;5.70;;;3.83;;
66593;SDS011;53450;42.584;23.366;2023-12-29T05:26:54;5.67;;;3.83;;
66593;SDS011;53450;42.584;23.366;2023-12-29T05:29:20;7.23;;;3.67;;
66593;SDS011;53450;42.584;23.366;2023-12-29T05:31:45;3.63;;;3.23;;
66593;SDS011;53450;42.584;23.366;2023-12-29T05:34:11;5.60;;;3.73;;
66593;SDS011;53450;42.584;23.366;2023-12-29T05:36:36;5.33;;;2.87;;
66593;SDS011;53450;42.584;23.366;2023-12-29T05:39:02;3.47;;;2.80;;
66593;SDS011;53450;42.584;23.366;2023-12-29T05:41:29;2.63;;;2.43;;
66593;SDS011;53450;42.584;23.366;2023-12-29T05:43:54;3.67;;;2.73;;
66593;SDS011;53450;42.584;23.366;2023-12-29T05:46:22;4.10;;;3.40;;
66593;SDS011;53450;42.584;23.366;2023-12-29T05:48:47;4.30;;;2.80;;
66593;SDS011;53450;42.584;23.366;2023-12-29T05:51:13;9.33;;;4.97;;
66593;SDS011;53450;42.584;23.366;2023-12-29T05:53:39;10.27;;;5.57;;
66593;SDS011;53450;42.584;23.366;2023-12-29T05:56:05;13.97;;;6.40;;
66593;SDS011;53450;42.584;23.366;2023-12-29T05:58:31;21.70;;;10.13;;
66593;SDS011;53450;42.584;23.366;2023-12-29T06:00:57;18.67;;;9.67;;
66593;SDS011;53450;42.584;23.366;2023-12-29T06:03:26;26.50;;;11.07;;
66593;SDS011;53450;42.584;23.366;2023-12-29T06:05:51;28.30;;;13.40;;
66593;SDS011;53450;42.584;23.366;2023-12-29T06:08:17;28.67;;;14.27;;
66593;SDS011;53450;42.584;23.366;2023-12-29T06:10:42;24.90;;;12.60;;
66593;SDS011;53450;42.584;23.366;2023-12-29T06:13:08;24.07;;;11.33;;
66593;SDS011;53450;42.584;23.366;2023-12-29T06:15:34;13.97;;;8.67;;
66593;SDS011;53450;42.584;23.366;2023-12-29T06:18:00;7.60;;;4.80;;
66593;SDS011;53450;42.584;23.366;2023-12-29T06:20:25;12.20;;;5.90;;
66593;SDS011;53450;42.584;23.366;2023-12-29T06:22:51;9.03;;;4.77;;
66593;SDS011;53450;42.584;23.366;2023-12-29T06:25:17;4.77;;;3.87;;
66593;SDS011;53450;42.584;23.366;2023-12-29T06:27:42;6.07;;;3.90;;
66593;SDS011;53450;42.584;23.366;2023-12-29T06:30:08;4.80;;;3.00;;
66593;SDS011;53450;42.584;23.366;2023-12-29T06:32:36;4.17;;;3.30;;
66593;SDS011;53450;42.584;23.366;2023-12-29T06:35:02;10.20;;;4.03;;
66593;SDS011;53450;42.584;23.366;2023-12-29T06:37:29;13.20;;;6.90;;
66593;SDS011;53450;42.584;23.366;2023-12-29T06:39:54;10.37;;;6.47;;
66593;SDS011;53450;42.584;23.366;2023-12-29T06:42:20;9.23;;;6.20;;
66593;SDS011;53450;42.584;23.366;2023-12-29T06:44:46;9.50;;;6.40;;
66593;SDS011;53450;42.584;23.366;2023-12-29T06:47:11;16.83;;;9.63;;
66593;SDS011;53450;42.584;23.366;2023-12-29T06:49:38;23.03;;;13.47;;
66593;SDS011;53450;42.584;23.366;2023-12-29T06:52:04;29.17;;;16.03;;
66593;SDS011;53450;42.584;23.366;2023-12-29T06:54:30;29.10;;;14.93;;
66593;SDS011;53450;42.584;23.366;2023-12-29T06:56:56;42.17;;;22.43;;
66593;SDS011;53450;42.584;23.366;2023-12-29T06:59:22;67.20;;;31.37;;
66593;SDS011;53450;42.584;23.366;2023-12-29T07:01:48;48.40;;;24.73;;
66593;SDS011;53450;42.584;23.366;2023-12-29T07:04:14;40.70;;;21.03;;
66593;SDS011;53450;42.584;23.366;2023-12-29T07:06:41;42.23;;;20.63;;
66593;SDS011;53450;42.584;23.366;2023-12-29T07:09:06;32.13;;;17.53;;
66593;SDS011;53450;42.584;23.366;2023-12-29T07:11:34;43.07;;;19.30;;
66593;SDS011;53450;42.584;23.366;2023-12-29T07:14:00;37.20;;;17.50;;
66593;SDS011;53450;42.584;23.366;2023-12-29T07:16:26;30.80;;;16.13;;
66593;SDS011;53450;42.584;23.366;2023-12-29T07:18:52;27.80;;;16.13;;
66593;SDS011;53450;42.584;23.366;2023-12-29T07:21:17;32.40;;;15.80;;
66593;SDS011;53450;42.584;23.366;2023-12-29T07:23:43;21.40;;;13.87;;
66593;SDS011;53450;42.584;23.366;2023-12-29T07:26:09;18.50;;;9.80;;
66593;SDS011;53450;42.584;23.366;2023-12-29T07:28:35;18.70;;;11.70;;
66593;SDS011;53450;42.584;23.366;2023-12-29T07:31:01;23.73;;;11.53;;
66593;SDS011;53450;42.584;23.366;2023-12-29T07:33:27;26.23;;;13.43;;
66593;SDS011;53450;42.584;23.366;2023-12-29T07:35:53;27.67;;;14.43;;
66593;SDS011;53450;42.584;23.366;2023-12-29T07:38:19;25.33;;;13.90;;
66593;SDS011;53450;42.584;23.366;2023-12-29T07:40:45;19.87;;;11.97;;
66593;SDS011;53450;42.584;23.366;2023-12-29T07:43:12;17.03;;;9.97;;
66593;SDS011;53450;42.584;23.366;2023-12-29T07:45:38;23.07;;;10.47;;
66593;SDS011;53450;42.584;23.366;2023-12-29T07:48:04;16.77;;;9.13;;
66593;SDS011;53450;42.584;23.366;2023-12-29T07:50:30;13.07;;;8.03;;
66593;SDS011;53450;42.584;23.366;2023-12-29T07:52:56;16.43;;;7.97;;
66593;SDS011;53450;42.584;23.366;2023-12-29T07:55:22;20.13;;;10.37;;
66593;SDS011;53450;42.584;23.366;2023-12-29T07:57:47;8.97;;;5.87;;
66593;SDS011;53450;42.584;23.366;2023-12-29T08:00:16;10.47;;;6.50;;
66593;SDS011;53450;42.584;23.366;2023-12-29T08:02:42;9.70;;;5.00;;
66593;SDS011;53450;42.584;23.366;2023-12-29T08:05:08;7.83;;;5.63;;
66593;SDS011;53450;42.584;23.366;2023-12-29T08:07:34;8.80;;;5.43;;
66593;SDS011;53450;42.584;23.366;2023-12-29T08:10:02;11.07;;;5.07;;
66593;SDS011;53450;42.584;23.366;2023-12-29T08:12:29;11.03;;;6.40;;
66593;SDS011;53450;42.584;23.366;2023-12-29T08:14:55;8.50;;;6.70;;
66593;SDS011;53450;42.584;23.366;2023-12-29T08:17:21;14.75;;;8.30;;
66593;SDS011;53450;42.584;23.366;2023-12-29T08:19:47;17.23;;;8.93;;
66593;SDS011;53450;42.584;23.366;2023-12-29T08:22:13;16.20;;;8.80;;
66593;SDS011;53450;42.584;23.366;2023-12-29T08:24:42;15.40;;;8.82;;
66593;SDS011;53450;42.584;23.366;2023-12-29T08:29:39;16.77;;;7.65;;
66593;SDS011;53450;42.584;23.366;2023-12-29T08:32:05;13.83;;;8.00;;
66593;SDS011;53450;42.584;23.366;2023-12-29T08:34:31;13.02;;;7.93;;
66593;SDS011;53450;42.584;23.366;2023-12-29T08:36:57;14.18;;;7.90;;
66593;SDS011;53450;42.584;23.366;2023-12-29T08:39:22;14.40;;;9.73;;
66593;SDS011;53450;42.584;23.366;2023-12-29T08:41:48;22.85;;;9.48;;
66593;SDS011;53450;42.584;23.366;2023-12-29T08:44:16;10.98;;;7.70;;
66593;SDS011;53450;42.584;23.366;2023-12-29T08:46:42;11.18;;;6.68;;
66593;SDS011;53450;42.584;23.366;2023-12-29T08:49:08;20.50;;;8.18;;
66593;SDS011;53450;42.584;23.366;2023-12-29T08:51:34;22.58;;;11.77;;
66593;SDS011;53450;42.584;23.366;2023-12-29T08:53:59;17.73;;;9.30;;
66593;SDS011;53450;42.584;23.366;2023-12-29T08:56:25;20.00;;;10.32;;
66593;SDS011;53450;42.584;23.366;2023-12-29T08:58:50;15.50;;;10.25;;
66593;SDS011;53450;42.584;23.366;2023-12-29T09:01:17;18.65;;;11.30;;
66593;SDS011;53450;42.584;23.366;2023-12-29T09:03:43;20.38;;;11.93;;
66593;SDS011;53450;42.584;23.366;2023-12-29T09:06:08;26.33;;;13.50;;
66593;SDS011;53450;42.584;23.366;2023-12-29T09:08:35;21.35;;;11.95;;
66593;SDS011;53450;42.584;23.366;2023-12-29T09:11:01;23.35;;;14.20;;
66593;SDS011;53450;42.584;23.366;2023-12-29T09:13:26;34.47;;;18.65;;
66593;SDS011;53450;42.584;23.366;2023-12-29T09:15:53;31.90;;;17.38;;
66593;SDS011;53450;42.584;23.366;2023-12-29T09:18:19;32.75;;;16.00;;
66593;SDS011;53450;42.584;23.366;2023-12-29T09:20:45;30.25;;;14.55;;
66593;SDS011;53450;42.584;23.366;2023-12-29T09:23:11;35.67;;;18.15;;
66593;SDS011;53450;42.584;23.366;2023-12-29T09:25:36;37.97;;;17.38;;
66593;SDS011;53450;42.584;23.366;2023-12-29T09:28:02;21.25;;;12.55;;
66593;SDS011;53450;42.584;23.366;2023-12-29T09:30:28;17.92;;;10.02;;
66593;SDS011;53450;42.584;23.366;2023-12-29T09:32:53;15.60;;;8.93;;
66593;SDS011;53450;42.584;23.366;2023-12-29T09:35:21;20.90;;;9.25;;
66593;SDS011;53450;42.584;23.366;2023-12-29T09:37:47;18.65;;;8.32;;
66593;SDS011;53450;42.584;23.366;2023-12-29T09:40:14;15.55;;;8.85;;
66593;SDS011;53450;42.584;23.366;2023-12-29T09:42:40;15.93;;;8.82;;
66593;SDS011;53450;42.584;23.366;2023-12-29T09:45:09;15.82;;;9.10;;
66593;SDS011;53450;42.584;23.366;2023-12-29T09:47:40;17.25;;;10.48;;
66593;SDS011;53450;42.584;23.366;2023-12-29T09:50:07;20.77;;;10.18;;
66593;SDS011;53450;42.584;23.366;2023-12-29T09:52:36;21.52;;;11.88;;
66593;SDS011;53450;42.584;23.366;2023-12-29T09:55:04;23.80;;;13.23;;
66593;SDS011;53450;42.584;23.366;2023-12-29T09:57:30;21.38;;;11.48;;
66593;SDS011;53450;42.584;23.366;2023-12-29T09:59:57;16.85;;;9.75;;
66593;SDS011;53450;42.584;23.366;2023-12-29T10:02:22;18.90;;;10.45;;
66593;SDS011;53450;42.584;23.366;2023-12-29T10:04:48;15.63;;;9.15;;
66593;SDS011;53450;42.584;23.366;2023-12-29T10:07:21;14.70;;;7.97;;
66593;SDS011;53450;42.584;23.366;2023-12-29T10:09:55;13.00;;;7.25;;
66593;SDS011;53450;42.584;23.366;2023-12-29T10:12:22;6.93;;;5.00;;
66593;SDS011;53450;42.584;23.366;2023-12-29T10:23:06;10.88;;;5.80;;
66593;SDS011;53450;42.584;23.366;2023-12-29T10:25:38;18.02;;;8.32;;
66593;SDS011;53450;42.584;23.366;2023-12-29T10:28:05;17.35;;;7.65;;
66593;SDS011;53450;42.584;23.366;2023-12-29T10:30:31;23.23;;;8.82;;
66593;SDS011;53450;42.584;23.366;2023-12-29T10:32:57;12.80;;;7.70;;
66593;SDS011;53450;42.584;23.366;2023-12-29T10:35:25;16.95;;;9.40;;
66593;SDS011;53450;42.584;23.366;2023-12-29T10:37:51;17.00;;;9.20;;
66593;SDS011;53450;42.584;23.366;2023-12-29T10:40:20;14.00;;;8.80;;
66593;SDS011;53450;42.584;23.366;2023-12-29T10:42:52;12.25;;;7.88;;
66593;SDS011;53450;42.584;23.366;2023-12-29T10:45:19;15.52;;;7.93;;
66593;SDS011;53450;42.584;23.366;2023-12-29T10:47:44;12.52;;;8.02;;
66593;SDS011;53450;42.584;23.366;2023-12-29T10:50:10;11.70;;;7.60;;
66593;SDS011;53450;42.584;23.366;2023-12-29T10:52:36;18.33;;;9.98;;
66593;SDS011;53450;42.584;23.366;2023-12-29T10:55:06;15.18;;;7.78;;
66593;SDS011;53450;42.584;23.366;2023-12-29T10:57:39;16.98;;;9.98;;
66593;SDS011;53450;42.584;23.366;2023-12-29T11:00:05;15.25;;;9.07;;
66593;SDS011;53450;42.584;23.366;2023-12-29T11:02:33;14.25;;;8.60;;
66593;SDS011;53450;42.584;23.366;2023-12-29T11:05:06;17.33;;;8.52;;
66593;SDS011;53450;42.584;23.366;2023-12-29T11:07:37;13.15;;;8.27;;
66593;SDS011;53450;42.584;23.366;2023-12-29T11:10:05;17.77;;;10.25;;
66593;SDS011;53450;42.584;23.366;2023-12-29T11:12:33;12.52;;;7.82;;
66593;SDS011;53450;42.584;23.366;2023-12-29T11:15:03;11.18;;;7.15;;
66593;SDS011;53450;42.584;23.366;2023-12-29T11:17:31;9.80;;;7.15;;
66593;SDS011;53450;42.584;23.366;2023-12-29T11:20:00;11.82;;;6.82;;
66593;SDS011;53450;42.584;23.366;2023-12-29T11:22:30;15.63;;;8.98;;
66593;SDS011;53450;42.584;23.366;2023-12-29T11:24:57;10.35;;;6.40;;
66593;SDS011;53450;42.584;23.366;2023-12-29T11:27:30;9.52;;;6.30;;
66593;SDS011;53450;42.584;23.366;2023-12-29T11:30:00;13.02;;;6.00;;
66593;SDS011;53450;42.584;23.366;2023-12-29T11:35:13;14.57;;;7.25;;
66593;SDS011;53450;42.584;23.366;2023-12-29T11:40:23;17.63;;;11.10;;
66593;SDS011;53450;42.584;23.366;2023-12-29T11:42:56;18.10;;;10.25;;
66593;SDS011;53450;42.584;23.366;2023-12-29T11:47:51;17.95;;;10.50;;
66593;SDS011;53450;42.584;23.366;2023-12-29T11:50:40;22.05;;;11.38;;
66593;SDS011;53450;42.584;23.366;2023-12-29T11:53:08;19.50;;;10.65;;
66593;SDS011;53450;42.584;23.366;2023-12-29T11:55:35;16.90;;;9.73;;
66593;SDS011;53450;42.584;23.366;2023-12-29T11:58:02;16.88;;;11.05;;
66593;SDS011;53450;42.584;23.366;2023-12-29T12:03:23;19.58;;;10.40;;
66593;SDS011;53450;42.584;23.366;2023-12-29T12:05:49;23.65;;;13.35;;
66593;SDS011;53450;42.584;23.366;2023-12-29T12:13:55;24.88;;;13.93;;
66593;SDS011;53450;42.584;23.366;2023-12-29T12:19:12;28.95;;;13.57;;
66593;SDS011;53450;42.584;23.366;2023-12-29T12:21:39;30.23;;;14.60;;
66593;SDS011;53450;42.584;23.366;2023-12-29T12:24:05;23.77;;;13.70;;
66593;SDS011;53450;42.584;23.366;2023-12-29T12:26:32;26.15;;;13.40;;
66593;SDS011;53450;42.584;23.366;2023-12-29T12:28:59;22.50;;;14.07;;
66593;SDS011;53450;42.584;23.366;2023-12-29T12:31:24;26.40;;;14.85;;
66593;SDS011;53450;42.584;23.366;2023-12-29T12:33:58;20.38;;;11.38;;
66593;SDS011;53450;42.584;23.366;2023-12-29T12:36:26;29.35;;;15.20;;
66593;SDS011;53450;42.584;23.366;2023-12-29T12:38:55;30.58;;;13.25;;
66593;SDS011;53450;42.584;23.366;2023-12-29T12:41:22;33.30;;;15.38;;
66593;SDS011;53450;42.584;23.366;2023-12-29T12:44:10;30.02;;;14.20;;
66593;SDS011;53450;42.584;23.366;2023-12-29T12:46:44;20.00;;;12.02;;
66593;SDS011;53450;42.584;23.366;2023-12-29T12:49:15;26.20;;;12.90;;
66593;SDS011;53450;42.584;23.366;2023-12-29T12:51:42;22.10;;;11.55;;
66593;SDS011;53450;42.584;23.366;2023-12-29T12:54:08;20.40;;;9.93;;
66593;SDS011;53450;42.584;23.366;2023-12-29T12:56:35;17.45;;;9.95;;
66593;SDS011;53450;42.584;23.366;2023-12-29T12:59:02;12.25;;;7.47;;
66593;SDS011;53450;42.584;23.366;2023-12-29T13:01:28;14.82;;;6.57;;
66593;SDS011;53450;42.584;23.366;2023-12-29T13:03:54;14.13;;;4.40;;
66593;SDS011;53450;42.584;23.366;2023-12-29T13:06:21;11.68;;;4.97;;
66593;SDS011;53450;42.584;23.366;2023-12-29T13:08:51;17.90;;;8.73;;
66593;SDS011;53450;42.584;23.366;2023-12-29T13:11:21;24.48;;;8.60;;
66593;SDS011;53450;42.584;23.366;2023-12-29T13:13:47;13.35;;;6.68;;
66593;SDS011;53450;42.584;23.366;2023-12-29T13:16:13;16.02;;;7.63;;
66593;SDS011;53450;42.584;23.366;2023-12-29T13:18:39;13.40;;;6.72;;
66593;SDS011;53450;42.584;23.366;2023-12-29T13:21:04;14.05;;;7.72;;
66593;SDS011;53450;42.584;23.366;2023-12-29T13:23:32;19.63;;;10.98;;
66593;SDS011;53450;42.584;23.366;2023-12-29T13:26:05;10.73;;;6.45;;
66593;SDS011;53450;42.584;23.366;2023-12-29T13:28:33;13.02;;;6.25;;
66593;SDS011;53450;42.584;23.366;2023-12-29T13:30:59;51.33;;;25.27;;
66593;SDS011;53450;42.584;23.366;2023-12-29T13:33:31;19.35;;;7.70;;
66593;SDS011;53450;42.584;23.366;2023-12-29T13:36:05;32.28;;;15.18;;
66593;SDS011;53450;42.584;23.366;2023-12-29T13:38:42;28.25;;;7.97;;
66593;SDS011;53450;42.584;23.366;2023-12-29T13:41:13;22.35;;;9.32;;
66593;SDS011;53450;42.584;23.366;2023-12-29T13:43:41;36.45;;;16.15;;
66593;SDS011;53450;42.584;23.366;2023-12-29T13:46:09;85.63;;;41.55;;
66593;SDS011;53450;42.584;23.366;2023-12-29T13:48:36;84.13;;;42.90;;
66593;SDS011;53450;42.584;23.366;2023-12-29T13:51:02;41.67;;;23.65;;
66593;SDS011;53450;42.584;23.366;2023-12-29T13:53:28;42.78;;;20.50;;
66593;SDS011;53450;42.584;23.366;2023-12-29T13:56:05;40.33;;;21.88;;
66593;SDS011;53450;42.584;23.366;2023-12-29T13:58:35;42.72;;;24.50;;
66593;SDS011;53450;42.584;23.366;2023-12-29T14:01:01;76.35;;;42.45;;
66593;SDS011;53450;42.584;23.366;2023-12-29T14:03:32;47.22;;;26.00;;
66593;SDS011;53450;42.584;23.366;2023-12-29T14:06:08;35.22;;;21.50;;
66593;SDS011;53450;42.584;23.366;2023-12-29T14:08:39;80.93;;;39.30;;
66593;SDS011;53450;42.584;23.366;2023-12-29T14:11:06;165.15;;;70.47;;
66593;SDS011;53450;42.584;23.366;2023-12-29T14:13:34;97.65;;;48.60;;
66593;SDS011;53450;42.584;23.366;2023-12-29T14:15:59;80.80;;;38.47;;
66593;SDS011;53450;42.584;23.366;2023-12-29T14:21:00;57.72;;;23.85;;
66593;SDS011;53450;42.584;23.366;2023-12-29T14:23:26;30.20;;;17.35;;
66593;SDS011;53450;42.584;23.366;2023-12-29T14:25:52;132.82;;;57.53;;
66593;SDS011;53450;42.584;23.366;2023-12-29T14:28:18;41.47;;;19.77;;
66593;SDS011;53450;42.584;23.366;2023-12-29T14:30:47;19.80;;;10.23;;
66593;SDS011;53450;42.584;23.366;2023-12-29T14:33:13;22.52;;;11.07;;
66593;SDS011;53450;42.584;23.366;2023-12-29T14:35:38;31.20;;;20.50;;
66593;SDS011;53450;42.584;23.366;2023-12-29T14:38:04;41.47;;;25.00;;
66593;SDS011;53450;42.584;23.366;2023-12-29T14:40:30;28.27;;;13.15;;
66593;SDS011;53450;42.584;23.366;2023-12-29T14:42:59;48.67;;;25.55;;
66593;SDS011;53450;42.584;23.366;2023-12-29T14:45:25;53.42;;;29.83;;
66593;SDS011;53450;42.584;23.366;2023-12-29T14:47:51;72.60;;;35.65;;
66593;SDS011;53450;42.584;23.366;2023-12-29T14:50:16;54.55;;;26.67;;
66593;SDS011;53450;42.584;23.366;2023-12-29T14:52:42;52.40;;;24.33;;